createdAt,value
2023-05-02T00:00:01.273Z,7.70
2023-05-02T00:03:09.420Z,7.63
2023-05-02T00:06:15.575Z,7.60
2023-05-02T00:09:21.594Z,7.60
2023-05-02T00:12:27.611Z,7.91
2023-05-02T00:15:33.746Z,7.80
2023-05-02T00:18:41.091Z,8.09
2023-05-02T00:21:49.359Z,7.73
2023-05-02T00:24:58.623Z,7.85
2023-05-02T00:28:05.043Z,8.00
2023-05-02T00:31:11.037Z,8.15
2023-05-02T00:34:18.746Z,8.28
2023-05-02T00:37:28.739Z,8.20
2023-05-02T00:40:45.022Z,7.99
2023-05-02T00:43:51.036Z,7.95
2023-05-02T00:46:57.433Z,8.25
2023-05-02T00:50:06.064Z,8.07
2023-05-02T00:53:12.594Z,8.31
2023-05-02T00:56:18.916Z,7.88
2023-05-02T00:59:25.224Z,8.14
2023-05-02T01:02:40.262Z,8.26
2023-05-02T01:05:53.629Z,8.20
2023-05-02T01:09:08.670Z,8.26
2023-05-02T01:12:23.876Z,8.18
2023-05-02T01:15:30.103Z,8.10
2023-05-02T01:18:39.948Z,8.15
2023-05-02T01:21:49.865Z,8.29
2023-05-02T01:25:06.033Z,8.36
2023-05-02T01:28:22.902Z,7.85
2023-05-02T01:31:34.454Z,7.62
2023-05-02T01:34:44.519Z,7.59
2023-05-02T01:37:52.898Z,7.94
2023-05-02T01:41:03.608Z,8.40
2023-05-02T01:44:11.130Z,8.24
2023-05-02T01:47:21.012Z,8.04
2023-05-02T01:50:27.811Z,8.18
2023-05-02T01:53:37.001Z,8.16
2023-05-02T01:56:45.678Z,7.81
2023-05-02T01:59:52.710Z,8.04
2023-05-02T02:03:01.540Z,7.78
2023-05-02T02:06:08.832Z,8.04
2023-05-02T02:09:15.427Z,8.01
2023-05-02T02:12:27.473Z,7.88
2023-05-02T02:15:37.200Z,7.92
2023-05-02T02:18:47.013Z,7.84
2023-05-02T02:21:55.655Z,7.47
2023-05-02T02:25:02.647Z,7.52
2023-05-02T02:28:09.073Z,7.65
2023-05-02T02:31:15.435Z,7.60
2023-05-02T02:34:23.321Z,7.34
2023-05-02T02:37:34.119Z,7.43
2023-05-02T02:40:46.190Z,7.27
2023-05-02T02:44:02.648Z,7.32
2023-05-02T02:47:12.913Z,7.18
2023-05-02T02:50:26.487Z,7.02
2023-05-02T02:53:42.156Z,7.31
2023-05-02T02:56:57.076Z,6.91
2023-05-02T03:00:10.849Z,6.62
2023-05-02T03:03:19.026Z,6.96
2023-05-02T03:06:27.522Z,7.24
2023-05-02T03:09:42.645Z,7.23
2023-05-02T03:12:49.223Z,7.01
2023-05-02T03:16:39.810Z,7.01
2023-05-02T03:19:47.401Z,6.70
2023-05-02T03:22:54.945Z,6.90
2023-05-02T03:26:00.988Z,7.02
2023-05-02T03:29:07.245Z,6.72
2023-05-02T03:32:13.413Z,6.82
2023-05-02T03:35:19.637Z,7.06
2023-05-02T03:38:27.306Z,7.17
2023-05-02T03:41:33.382Z,7.21
2023-05-02T03:44:39.463Z,6.88
2023-05-02T03:47:45.443Z,7.00
2023-05-02T03:50:52.261Z,7.06
2023-05-02T03:53:59.872Z,7.25
2023-05-02T03:57:06.276Z,7.21
2023-05-02T04:00:13.381Z,7.25
2023-05-02T04:03:20.047Z,7.20
2023-05-02T04:06:26.304Z,7.03
2023-05-02T04:09:34.021Z,7.10
2023-05-02T04:12:40.096Z,6.99
2023-05-02T04:15:46.912Z,7.27
2023-05-02T04:18:53.447Z,7.07
2023-05-02T04:21:59.858Z,7.02
2023-05-02T04:25:07.848Z,6.79
2023-05-02T04:28:14.231Z,5.77
2023-05-02T04:31:20.517Z,6.94
2023-05-02T04:34:27.780Z,7.11
2023-05-02T04:37:34.392Z,7.34
2023-05-02T04:40:42.444Z,7.22
2023-05-02T04:43:48.401Z,7.23
2023-05-02T04:46:54.763Z,7.44
2023-05-02T04:50:01.301Z,7.38
2023-05-02T04:53:07.790Z,7.63
2023-05-02T04:56:15.346Z,7.44
2023-05-02T04:59:21.893Z,7.45
2023-05-02T05:02:28.336Z,7.81
2023-05-02T05:05:34.664Z,7.86
2023-05-02T05:08:40.801Z,7.53
2023-05-02T05:11:48.214Z,7.14
2023-05-02T05:14:54.608Z,7.33
2023-05-02T05:18:01.293Z,7.52
2023-05-02T05:21:07.509Z,7.89
2023-05-02T05:24:13.567Z,7.64
2023-05-02T05:27:20.869Z,7.53
2023-05-02T05:30:27.260Z,7.61
2023-05-02T05:33:33.545Z,8.04
2023-05-02T05:36:41.266Z,7.84
2023-05-02T05:39:47.451Z,8.31
2023-05-02T05:42:55.141Z,8.20
2023-05-02T05:46:01.526Z,8.55
2023-05-02T05:49:08.054Z,9.38
2023-05-02T05:52:14.083Z,9.54
2023-05-02T05:55:20.516Z,9.31
2023-05-02T05:58:28.003Z,9.33
2023-05-02T06:01:34.312Z,9.87
2023-05-02T06:04:40.794Z,10.11
2023-05-02T06:07:47.386Z,8.99
2023-05-02T06:10:53.411Z,9.59
2023-05-02T06:14:00.906Z,10.61
2023-05-02T06:17:07.360Z,11.52
2023-05-02T06:20:14.067Z,11.98
2023-05-02T06:23:21.167Z,10.98
2023-05-02T06:26:27.193Z,10.35
2023-05-02T06:29:34.721Z,10.18
2023-05-02T06:32:42.470Z,10.20
2023-05-02T06:35:52.899Z,11.45
2023-05-02T06:38:59.092Z,12.67
2023-05-02T06:42:05.733Z,13.30
2023-05-02T06:45:13.595Z,11.78
2023-05-02T06:48:20.141Z,12.49
2023-05-02T06:51:26.228Z,11.84
2023-05-02T06:54:32.217Z,11.76
2023-05-02T06:57:38.372Z,12.46
2023-05-02T07:00:46.266Z,11.95
2023-05-02T07:03:52.791Z,11.95
2023-05-02T07:06:59.240Z,13.59
2023-05-02T07:10:05.982Z,13.88
2023-05-02T07:13:12.110Z,13.25
2023-05-02T07:16:19.527Z,13.28
2023-05-02T07:19:26.137Z,13.91
2023-05-02T07:22:32.475Z,13.52
2023-05-02T07:25:40.235Z,13.57
2023-05-02T07:28:46.578Z,14.09
2023-05-02T07:31:54.581Z,13.08
2023-05-02T07:35:00.966Z,14.33
2023-05-02T07:38:07.355Z,15.67
2023-05-02T07:41:15.061Z,15.64
2023-05-02T07:44:21.582Z,15.99
2023-05-02T07:47:29.556Z,15.70
2023-05-02T07:50:35.984Z,15.94
2023-05-02T07:53:42.417Z,15.77
2023-05-02T07:56:49.055Z,16.02
2023-05-02T07:59:57.459Z,18.12
2023-05-02T08:03:06.764Z,17.97
2023-05-02T08:06:14.310Z,17.71
2023-05-02T08:09:20.775Z,18.13
2023-05-02T08:12:27.008Z,18.11
2023-05-02T08:15:33.305Z,18.97
2023-05-02T08:18:41.351Z,18.59
2023-05-02T08:21:47.468Z,18.45
2023-05-02T08:24:53.382Z,18.35
2023-05-02T08:27:59.365Z,18.01
2023-05-02T08:31:05.568Z,18.92
2023-05-02T08:34:13.028Z,18.99
2023-05-02T08:37:19.488Z,18.79
2023-05-02T08:40:40.584Z,19.25
2023-05-02T08:43:48.753Z,19.31
2023-05-02T08:46:56.846Z,19.10
2023-05-02T08:50:05.695Z,19.16
2023-05-02T08:53:13.797Z,18.92
2023-05-02T08:56:20.200Z,19.52
2023-05-02T08:59:26.541Z,19.37
2023-05-02T09:02:57.366Z,19.30
2023-05-02T09:06:10.765Z,20.04
2023-05-02T09:09:17.803Z,19.60
2023-05-02T09:12:27.807Z,19.40
2023-05-02T09:15:34.395Z,19.44
2023-05-02T09:18:42.912Z,19.88
2023-05-02T09:21:50.652Z,19.48
2023-05-02T09:24:57.526Z,19.83
2023-05-02T09:28:04.023Z,19.96
2023-05-02T09:31:12.622Z,19.68
2023-05-02T09:34:19.529Z,19.68
2023-05-02T09:37:39.707Z,19.78
2023-05-02T09:40:55.730Z,19.71
2023-05-02T09:44:01.874Z,19.92
2023-05-02T09:47:09.437Z,20.19
2023-05-02T09:50:35.039Z,20.43
2023-05-02T09:53:46.569Z,20.03
2023-05-02T09:56:57.594Z,20.86
2023-05-02T10:00:03.693Z,20.42
2023-05-02T10:03:10.842Z,20.47
2023-05-02T10:06:18.173Z,20.65
2023-05-02T10:09:27.445Z,19.91
2023-05-02T10:12:35.004Z,21.14
2023-05-02T10:15:45.890Z,20.89
2023-05-02T10:19:04.427Z,21.26
2023-05-02T10:22:11.856Z,20.00
2023-05-02T10:25:20.337Z,21.05
2023-05-02T10:28:28.144Z,20.29
2023-05-02T10:31:35.608Z,21.81
2023-05-02T10:34:43.421Z,21.39
2023-05-02T10:37:51.143Z,21.64
2023-05-02T10:41:02.949Z,22.09
2023-05-02T10:44:09.008Z,21.10
2023-05-02T10:47:22.737Z,22.04
2023-05-02T10:50:44.397Z,21.18
2023-05-02T10:53:50.662Z,21.49
2023-05-02T10:57:07.713Z,21.48
2023-05-02T11:00:24.950Z,22.17
2023-05-02T11:03:57.211Z,22.33
2023-05-02T11:07:24.582Z,22.46
2023-05-02T11:10:30.558Z,21.61
2023-05-02T11:13:53.321Z,22.15
2023-05-02T11:17:12.009Z,22.26
2023-05-02T11:20:20.696Z,22.17
2023-05-02T11:23:27.244Z,22.13
2023-05-02T11:26:33.615Z,21.25
2023-05-02T11:29:59.550Z,20.45
2023-05-02T11:33:20.445Z,21.68
2023-05-02T11:36:30.914Z,21.27
2023-05-02T11:39:37.157Z,21.99
2023-05-02T11:42:43.651Z,21.00
2023-05-02T11:45:51.504Z,21.15
2023-05-02T11:48:57.625Z,20.81
2023-05-02T11:52:06.838Z,21.38
2023-05-02T11:55:15.260Z,21.85
2023-05-02T11:58:23.441Z,21.36
2023-05-02T12:01:31.498Z,21.33
2023-05-02T12:04:44.195Z,22.36
2023-05-02T12:07:50.240Z,21.46
2023-05-02T12:10:58.012Z,20.72
2023-05-02T12:14:05.520Z,20.70
2023-05-02T12:17:13.511Z,21.61
2023-05-02T12:20:19.968Z,21.05
2023-05-02T12:23:27.581Z,21.75
2023-05-02T12:26:33.857Z,22.42
2023-05-02T12:29:41.386Z,23.16
2023-05-02T12:32:57.690Z,21.79
2023-05-02T12:36:10.042Z,22.03
2023-05-02T12:39:16.449Z,23.68
2023-05-02T12:42:23.906Z,22.69
2023-05-02T12:45:33.801Z,23.00
2023-05-02T12:48:41.568Z,22.97
2023-05-02T12:51:55.827Z,22.15
2023-05-02T12:55:16.983Z,23.21
2023-05-02T12:58:25.625Z,22.38
2023-05-02T13:01:31.819Z,22.58
2023-05-02T13:04:41.212Z,23.25
2023-05-02T13:07:47.680Z,23.05
2023-05-02T13:10:54.092Z,23.47
2023-05-02T13:14:01.612Z,23.24
2023-05-02T13:17:08.916Z,23.60
2023-05-02T13:20:16.567Z,23.11
2023-05-02T13:23:22.712Z,23.43
2023-05-02T13:26:28.713Z,22.81
2023-05-02T13:29:34.984Z,22.80
2023-05-02T13:32:41.436Z,23.47
2023-05-02T13:35:48.732Z,23.24
2023-05-02T13:38:54.928Z,23.22
2023-05-02T13:42:03.571Z,22.50
2023-05-02T13:45:11.042Z,23.29
2023-05-02T13:48:17.098Z,23.30
2023-05-02T13:51:24.935Z,23.44
2023-05-02T13:54:31.146Z,23.63
2023-05-02T13:57:37.572Z,23.01
2023-05-02T14:00:44.137Z,23.03
2023-05-02T14:03:50.595Z,23.18
2023-05-02T14:06:57.993Z,23.45
2023-05-02T14:10:04.322Z,23.39
2023-05-02T14:13:10.800Z,22.86
2023-05-02T14:16:16.789Z,23.57
2023-05-02T14:19:22.879Z,24.05
2023-05-02T14:22:30.539Z,22.81
2023-05-02T14:25:37.530Z,24.15
2023-05-02T14:28:43.515Z,23.86
2023-05-02T14:31:49.514Z,22.97
2023-05-02T14:38:02.573Z,21.98
2023-05-02T14:41:08.447Z,22.14
2023-05-02T14:44:14.457Z,22.29
2023-05-02T14:47:21.134Z,22.55
2023-05-02T14:50:27.528Z,23.34
2023-05-02T14:53:35.617Z,22.15
2023-05-02T14:56:41.940Z,20.78
2023-05-02T14:59:48.441Z,20.69
2023-05-02T15:02:55.051Z,23.12
2023-05-02T15:06:01.726Z,24.24
2023-05-02T15:09:09.680Z,24.20
2023-05-02T15:12:15.817Z,24.55
2023-05-02T15:15:25.170Z,21.49
2023-05-02T15:18:32.330Z,19.64
2023-05-02T15:21:38.881Z,19.70
2023-05-02T15:24:46.880Z,19.77
2023-05-02T15:27:52.982Z,19.40
2023-05-02T15:30:59.389Z,19.42
2023-05-02T15:34:05.749Z,19.23
2023-05-02T15:37:12.154Z,19.14
2023-05-02T15:40:20.083Z,18.81
2023-05-02T15:43:26.846Z,18.98
2023-05-02T15:46:32.963Z,18.49
2023-05-02T15:49:39.193Z,18.76
2023-05-02T15:52:45.197Z,18.80
2023-05-02T15:55:53.458Z,18.68
2023-05-02T15:58:59.537Z,18.48
2023-05-02T16:02:06.408Z,18.37
2023-05-02T16:05:13.007Z,18.22
2023-05-02T16:08:19.228Z,18.05
2023-05-02T16:11:26.839Z,18.08
2023-05-02T16:14:33.159Z,17.96
2023-05-02T16:17:39.344Z,17.81
2023-05-02T16:20:47.853Z,17.87
2023-05-02T16:23:55.137Z,17.84
2023-05-02T16:27:02.860Z,17.74
2023-05-02T16:30:10.358Z,17.62
2023-05-02T16:33:16.936Z,17.46
2023-05-02T16:36:23.612Z,17.28
2023-05-02T16:39:30.232Z,17.25
2023-05-02T16:42:38.216Z,16.97
2023-05-02T16:45:47.110Z,16.95
2023-05-02T16:48:53.363Z,16.83
2023-05-02T16:51:59.944Z,16.71
2023-05-02T16:55:06.853Z,16.55
2023-05-02T16:58:14.477Z,16.48
2023-05-02T17:01:21.060Z,16.34
2023-05-02T17:04:27.599Z,16.30
2023-05-02T17:07:33.900Z,16.13
2023-05-02T17:10:40.009Z,15.93
2023-05-02T17:13:49.808Z,15.85
2023-05-02T17:16:56.390Z,15.79
2023-05-02T17:20:02.657Z,15.65
2023-05-02T17:23:09.155Z,15.55
2023-05-02T17:26:15.777Z,15.30
2023-05-02T17:29:23.036Z,15.36
2023-05-02T17:32:29.065Z,15.19
2023-05-02T17:35:35.113Z,15.28
2023-05-02T17:38:42.014Z,15.10
2023-05-02T17:41:48.391Z,14.97
2023-05-02T17:44:56.256Z,14.85
2023-05-02T17:48:03.979Z,14.81
2023-05-02T17:51:10.563Z,14.63
2023-05-02T17:54:16.605Z,14.57
2023-05-02T17:57:23.210Z,14.40
2023-05-02T18:00:31.113Z,14.35
2023-05-02T18:03:37.439Z,14.13
2023-05-02T18:06:44.077Z,14.13
2023-05-02T18:09:50.249Z,13.93
2023-05-02T18:12:56.585Z,13.81
2023-05-02T18:16:04.831Z,13.88
2023-05-02T18:19:10.971Z,13.84
2023-05-02T18:22:19.898Z,13.64
2023-05-02T18:25:29.071Z,13.58
2023-05-02T18:28:35.436Z,13.48
2023-05-02T18:31:43.511Z,13.53
2023-05-02T18:34:49.772Z,13.51
2023-05-02T18:37:56.548Z,13.48
2023-05-02T18:41:03.105Z,13.31
2023-05-02T18:44:10.700Z,13.27
2023-05-02T18:47:18.285Z,13.28
2023-05-02T18:50:26.344Z,13.23
2023-05-02T18:53:32.598Z,13.14
2023-05-02T18:56:38.693Z,13.08
2023-05-02T18:59:44.941Z,12.96
2023-05-02T19:02:54.647Z,12.84
2023-05-02T19:06:01.210Z,12.66
2023-05-02T19:09:07.615Z,12.72
2023-05-02T19:12:13.474Z,12.73
2023-05-02T19:15:19.748Z,12.64
2023-05-02T19:18:27.195Z,12.73
2023-05-02T19:21:34.229Z,12.53
2023-05-02T19:24:40.442Z,12.51
2023-05-02T19:27:47.827Z,12.31
2023-05-02T19:30:54.889Z,12.38
2023-05-02T19:34:02.399Z,12.27
2023-05-02T19:37:08.779Z,12.38
2023-05-02T19:40:15.378Z,12.25
2023-05-02T19:43:21.565Z,12.23
2023-05-02T19:46:31.164Z,12.15
2023-05-02T19:49:38.862Z,12.14
2023-05-02T19:52:45.252Z,12.14
2023-05-02T19:55:51.765Z,12.11
2023-05-02T19:58:58.805Z,11.79
2023-05-02T20:02:05.733Z,12.09
2023-05-02T20:05:13.407Z,12.08
2023-05-02T20:08:21.545Z,12.04
2023-05-02T20:11:30.968Z,11.87
2023-05-02T20:14:37.510Z,11.84
2023-05-02T20:17:43.976Z,11.72
2023-05-02T20:20:51.755Z,11.88
2023-05-02T20:23:57.786Z,11.89
2023-05-02T20:27:03.933Z,11.80
2023-05-02T20:30:12.435Z,11.65
2023-05-02T20:33:18.876Z,11.60
2023-05-02T20:36:27.879Z,11.75
2023-05-02T20:39:34.150Z,11.64
2023-05-02T20:42:42.598Z,11.67
2023-05-02T20:45:48.915Z,11.65
2023-05-02T20:48:55.040Z,11.60
2023-05-02T20:52:05.468Z,11.70
2023-05-02T20:55:12.260Z,11.75
2023-05-02T20:58:18.617Z,11.69
2023-05-02T21:01:25.057Z,11.63
2023-05-02T21:04:31.276Z,11.81
2023-05-02T21:07:40.599Z,11.81
2023-05-02T21:10:46.960Z,11.79
2023-05-02T21:13:53.169Z,11.79
2023-05-02T21:16:59.311Z,11.91
2023-05-02T21:20:06.134Z,12.01
2023-05-02T21:23:13.717Z,11.90
2023-05-02T21:26:19.905Z,11.78
2023-05-02T21:29:26.374Z,11.77
2023-05-02T21:32:32.606Z,11.95
2023-05-02T21:35:38.629Z,11.52
2023-05-02T21:38:46.422Z,11.56
2023-05-02T21:41:53.127Z,11.29
2023-05-02T21:44:59.638Z,11.59
2023-05-02T21:48:06.725Z,11.53
2023-05-02T21:51:14.218Z,11.22
2023-05-02T21:54:21.977Z,10.98
2023-05-02T21:57:28.345Z,10.98
2023-05-02T22:00:35.006Z,11.03
2023-05-02T22:03:41.425Z,11.08
2023-05-02T22:06:51.409Z,11.04
2023-05-02T22:09:59.013Z,10.90
2023-05-02T22:13:05.573Z,10.87
2023-05-02T22:16:12.141Z,10.91
2023-05-02T22:19:19.036Z,10.81
2023-05-02T22:22:25.395Z,10.91
2023-05-02T22:25:32.957Z,11.17
2023-05-02T22:28:39.262Z,11.03
2023-05-02T22:31:47.253Z,11.04
2023-05-02T22:34:53.095Z,11.05
2023-05-02T22:38:01.522Z,11.02
2023-05-02T22:41:09.244Z,10.91
2023-05-02T22:44:15.591Z,10.87
2023-05-02T22:47:23.016Z,10.92
2023-05-02T22:50:30.320Z,10.91
2023-05-02T22:53:36.526Z,11.06
2023-05-02T22:56:44.122Z,11.02
2023-05-02T22:59:50.139Z,11.22
2023-05-02T23:02:57.441Z,10.95
2023-05-02T23:06:03.660Z,11.12
2023-05-02T23:09:09.672Z,11.19
2023-05-02T23:12:17.072Z,11.19
2023-05-02T23:15:23.311Z,11.08
2023-05-02T23:18:29.622Z,11.00
2023-05-02T23:21:35.930Z,11.08
2023-05-02T23:24:42.755Z,10.83
2023-05-02T23:27:50.123Z,10.60
2023-05-02T23:30:56.332Z,10.93
2023-05-02T23:34:02.510Z,10.73
2023-05-02T23:37:08.727Z,10.87
2023-05-02T23:40:15.446Z,10.80
2023-05-02T23:43:23.149Z,10.59
2023-05-02T23:46:29.106Z,10.86
2023-05-02T23:49:35.141Z,10.94
2023-05-02T23:52:40.891Z,10.74
2023-05-02T23:55:47.245Z,10.45
2023-05-02T23:58:55.159Z,10.80
